createdAt,value
2022-11-06T00:09:17.832Z,63.30
2022-11-06T00:14:12.501Z,63.40
2022-11-06T00:16:40.518Z,63.60
2022-11-06T00:19:07.704Z,63.60
2022-11-06T00:24:04.157Z,63.40
2022-11-06T00:26:32.189Z,63.40
2022-11-06T00:31:29.609Z,63.30
2022-11-06T00:33:58.451Z,63.30
2022-11-06T00:36:26.695Z,63.30
2022-11-06T00:38:55.134Z,63.30
2022-11-06T00:41:23.398Z,63.40
2022-11-06T00:43:52.244Z,63.30
2022-11-06T00:51:24.272Z,63.20
2022-11-06T00:53:55.507Z,63.30
2022-11-06T00:56:23.317Z,63.20
2022-11-06T01:01:23.424Z,63.20
2022-11-06T01:03:57.148Z,63.20
2022-11-06T01:06:26.601Z,63.20
2022-11-06T01:11:23.940Z,63.30
2022-11-06T01:13:53.754Z,63.20
2022-11-06T01:16:21.979Z,63.20
2022-11-06T01:21:25.245Z,63.10
2022-11-06T01:24:01.594Z,63.00
2022-11-06T01:26:38.357Z,63.10
2022-11-06T01:29:08.604Z,63.10
2022-11-06T01:31:36.290Z,63.20
2022-11-06T01:34:04.537Z,63.10
2022-11-06T01:36:32.432Z,63.20
2022-11-06T01:39:01.615Z,63.20
2022-11-06T01:41:32.035Z,63.10
2022-11-06T01:44:01.976Z,63.20
2022-11-06T01:46:34.755Z,63.20
2022-11-06T01:49:16.713Z,63.20
2022-11-06T01:51:54.052Z,63.30
2022-11-06T01:54:22.707Z,63.20
2022-11-06T01:56:52.141Z,63.40
2022-11-06T01:59:22.558Z,63.40
2022-11-06T02:04:24.548Z,63.20
2022-11-06T02:09:19.820Z,63.10
2022-11-06T02:12:11.618Z,62.90
2022-11-06T02:14:46.127Z,63.00
2022-11-06T02:17:41.249Z,63.10
2022-11-06T02:20:15.549Z,63.30
2022-11-06T02:22:57.427Z,63.30
2022-11-06T02:25:51.999Z,63.30
2022-11-06T02:28:26.494Z,63.50
2022-11-06T02:30:53.748Z,63.40
2022-11-06T02:33:34.439Z,63.50
2022-11-06T02:36:12.071Z,63.20
2022-11-06T02:38:45.610Z,63.10
2022-11-06T02:41:24.623Z,63.20
2022-11-06T02:43:56.935Z,63.00
2022-11-06T02:46:39.862Z,63.10
2022-11-06T02:49:20.143Z,63.10
2022-11-06T02:51:51.337Z,63.20
2022-11-06T02:54:21.360Z,63.20
2022-11-06T02:56:52.260Z,63.00
2022-11-06T02:59:24.091Z,63.00
2022-11-06T03:02:07.442Z,63.00
2022-11-06T03:04:58.378Z,63.00
2022-11-06T03:12:28.163Z,63.00
2022-11-06T03:15:00.638Z,62.90
2022-11-06T03:17:59.535Z,62.80
2022-11-06T03:20:45.915Z,62.80
2022-11-06T03:23:37.854Z,62.90
2022-11-06T03:26:16.244Z,62.90
2022-11-06T03:28:56.861Z,63.00
2022-11-06T03:31:36.649Z,63.00
2022-11-06T03:34:10.970Z,63.00
2022-11-06T03:36:49.225Z,63.30
2022-11-06T03:39:25.905Z,63.30
2022-11-06T03:42:14.907Z,63.40
2022-11-06T03:44:48.426Z,63.40
2022-11-06T03:47:23.983Z,63.30
2022-11-06T03:49:57.389Z,63.20
2022-11-06T03:52:33.870Z,63.20
2022-11-06T03:55:22.648Z,63.20
2022-11-06T04:00:20.457Z,63.50
2022-11-06T04:03:04.735Z,63.60
2022-11-06T04:05:55.144Z,63.50
2022-11-06T04:08:43.726Z,63.60
2022-11-06T04:11:32.800Z,63.70
2022-11-06T04:14:05.444Z,63.90
2022-11-06T04:16:46.559Z,64.20
2022-11-06T04:19:18.967Z,64.30
2022-11-06T04:22:20.044Z,64.30
2022-11-06T04:25:27.679Z,64.20
2022-11-06T04:28:09.450Z,63.90
2022-11-06T04:30:55.799Z,64.00
2022-11-06T04:33:30.551Z,64.10
2022-11-06T04:36:16.375Z,64.30
2022-11-06T04:38:57.322Z,64.20
2022-11-06T04:44:10.129Z,64.30
2022-11-06T04:46:55.049Z,64.40
2022-11-06T04:49:23.435Z,64.50
2022-11-06T04:54:18.088Z,64.80
2022-11-06T04:59:18.163Z,64.60
2022-11-06T05:01:46.503Z,64.40
2022-11-06T05:14:02.564Z,64.40
2022-11-06T05:24:10.440Z,64.80
2022-11-06T05:29:04.803Z,65.00
2022-11-06T05:41:21.487Z,65.20
2022-11-06T05:43:48.523Z,65.20
2022-11-06T05:58:52.101Z,65.50
2022-11-06T06:03:46.446Z,65.90
2022-11-06T06:11:08.857Z,66.40
2022-11-06T06:13:37.414Z,66.50
2022-11-06T06:18:31.719Z,66.80
2022-11-06T06:23:26.163Z,67.00
2022-11-06T06:28:20.455Z,67.10
2022-11-06T06:38:09.631Z,67.30
2022-11-06T06:48:05.505Z,67.10
2022-11-06T06:50:32.814Z,67.10
2022-11-06T06:53:00.087Z,66.70
2022-11-06T06:57:59.914Z,66.30
2022-11-06T07:05:26.661Z,66.00
2022-11-06T07:20:10.800Z,65.90
2022-11-06T07:25:06.149Z,66.10
2022-11-06T07:59:41.134Z,67.20
2022-11-06T08:02:12.912Z,67.20
2022-11-06T08:12:02.456Z,67.50
2022-11-06T08:16:57.628Z,67.60
2022-11-06T08:21:52.977Z,67.70
2022-11-06T08:24:22.180Z,67.80
2022-11-06T08:36:52.615Z,67.80
2022-11-06T09:03:53.809Z,67.80
2022-11-06T09:08:48.477Z,68.00
2022-11-06T09:18:44.014Z,68.30
2022-11-06T09:21:11.522Z,68.30
2022-11-06T09:31:02.267Z,68.40
2022-11-06T09:40:58.189Z,68.60
2022-11-06T09:46:29.659Z,68.40
2022-11-06T09:49:16.162Z,68.40
2022-11-06T09:51:52.671Z,68.90
2022-11-06T09:54:28.257Z,68.20
2022-11-06T09:57:02.073Z,68.20
2022-11-06T09:59:31.542Z,68.10
2022-11-06T10:02:01.882Z,68.20
2022-11-06T10:05:02.382Z,68.20
2022-11-06T10:07:36.130Z,68.20
2022-11-06T10:10:05.716Z,68.10
2022-11-06T10:15:17.888Z,67.80
2022-11-06T10:18:08.330Z,67.70
2022-11-06T10:20:45.269Z,67.70
2022-11-06T10:23:31.296Z,67.70
2022-11-06T10:26:07.590Z,67.80
2022-11-06T10:29:05.341Z,67.60
2022-11-06T10:32:00.269Z,67.30
2022-11-06T10:34:32.943Z,67.30
2022-11-06T10:37:11.076Z,67.30
2022-11-06T10:42:18.567Z,67.10
2022-11-06T10:44:48.586Z,67.10
2022-11-06T10:47:21.341Z,66.90
2022-11-06T10:49:57.830Z,66.80
2022-11-06T10:52:46.605Z,66.60
2022-11-06T10:57:46.742Z,66.50
2022-11-06T11:00:15.340Z,66.30
2022-11-06T11:02:49.485Z,66.10
2022-11-06T11:05:18.476Z,65.90
2022-11-06T11:07:48.342Z,65.70
2022-11-06T11:10:24.043Z,65.40
2022-11-06T11:12:53.938Z,65.50
2022-11-06T11:15:26.195Z,65.50
2022-11-06T11:18:12.004Z,65.40
2022-11-06T11:20:41.247Z,65.40
2022-11-06T11:23:22.422Z,65.50
2022-11-06T11:25:55.750Z,65.20
2022-11-06T11:28:33.111Z,65.00
2022-11-06T11:31:06.400Z,64.80
2022-11-06T11:33:34.265Z,64.80
2022-11-06T11:36:03.302Z,64.80
2022-11-06T11:41:19.365Z,64.70
2022-11-06T11:44:14.958Z,64.40
2022-11-06T11:46:51.173Z,64.20
2022-11-06T11:49:31.899Z,64.10
2022-11-06T11:52:01.585Z,63.90
2022-11-06T11:54:34.553Z,63.80
2022-11-06T11:57:06.696Z,64.10
2022-11-06T11:59:49.692Z,63.50
2022-11-06T12:02:27.682Z,63.60
2022-11-06T12:05:10.810Z,63.20
2022-11-06T12:07:46.216Z,62.90
2022-11-06T12:10:39.798Z,62.70
2022-11-06T12:13:23.223Z,62.80
2022-11-06T12:16:06.918Z,62.80
2022-11-06T12:18:46.507Z,62.70
2022-11-06T12:23:43.415Z,62.60
2022-11-06T12:26:47.591Z,62.70
2022-11-06T12:29:21.909Z,62.80
2022-11-06T12:31:55.424Z,62.80
2022-11-06T12:34:39.255Z,62.80
2022-11-06T12:37:54.392Z,62.70
2022-11-06T12:40:35.382Z,62.60
2022-11-06T12:43:25.494Z,62.30
2022-11-06T12:46:07.687Z,62.00
2022-11-06T12:49:12.267Z,61.40
2022-11-06T12:51:45.177Z,61.00
2022-11-06T12:54:49.895Z,60.60
2022-11-06T12:57:38.444Z,60.50
2022-11-06T13:00:11.320Z,60.20
2022-11-06T13:02:57.073Z,59.90
2022-11-06T13:05:35.438Z,59.60
2022-11-06T13:08:20.755Z,59.40
2022-11-06T13:10:52.268Z,59.50
2022-11-06T13:13:53.494Z,59.40
2022-11-06T13:16:37.389Z,59.50
2022-11-06T13:19:31.880Z,59.40
2022-11-06T13:22:10.077Z,59.30
2022-11-06T13:25:14.530Z,59.10
2022-11-06T13:28:04.716Z,58.70
2022-11-06T13:30:33.243Z,58.40
2022-11-06T13:33:06.736Z,58.10
2022-11-06T13:35:36.791Z,57.80
2022-11-06T13:38:08.345Z,57.50
2022-11-06T13:40:44.183Z,57.50
2022-11-06T13:46:07.410Z,57.20
2022-11-06T13:49:08.536Z,57.30
2022-11-06T13:51:52.388Z,57.20
2022-11-06T13:54:28.362Z,56.90
2022-11-06T13:57:14.719Z,57.00
2022-11-06T14:02:18.422Z,57.00
2022-11-06T14:05:17.067Z,57.00
2022-11-06T14:10:23.342Z,56.90
2022-11-06T14:12:51.063Z,57.00
2022-11-06T14:15:20.672Z,57.00
2022-11-06T14:18:01.463Z,56.80
2022-11-06T14:20:35.511Z,56.90
2022-11-06T14:23:30.426Z,56.90
2022-11-06T14:26:12.864Z,56.90
2022-11-06T14:28:44.474Z,57.00
2022-11-06T14:31:32.030Z,56.80
2022-11-06T14:34:00.819Z,56.70
2022-11-06T14:36:29.422Z,56.60
2022-11-06T14:38:56.515Z,56.70
2022-11-06T14:41:35.713Z,56.70
2022-11-06T14:44:18.379Z,56.80
2022-11-06T14:46:55.538Z,56.90
2022-11-06T14:49:53.875Z,57.00
2022-11-06T14:52:23.883Z,56.90
2022-11-06T14:55:05.135Z,57.00
2022-11-06T14:57:43.804Z,57.00
2022-11-06T15:00:32.764Z,57.00
2022-11-06T15:03:00.467Z,56.90
2022-11-06T15:08:06.251Z,57.50
2022-11-06T15:10:42.418Z,57.60
2022-11-06T15:13:22.694Z,57.50
2022-11-06T15:15:53.168Z,57.40
2022-11-06T15:18:23.679Z,57.50
2022-11-06T15:20:55.503Z,57.60
2022-11-06T15:23:31.504Z,57.90
2022-11-06T15:26:08.664Z,58.10
2022-11-06T15:28:44.690Z,58.20
2022-11-06T15:31:16.904Z,58.70
2022-11-06T15:34:22.645Z,58.30
2022-11-06T15:36:54.362Z,58.40
2022-11-06T15:41:54.483Z,58.50
2022-11-06T15:44:24.038Z,58.60
2022-11-06T15:46:59.165Z,58.60
2022-11-06T15:49:26.618Z,58.70
2022-11-06T15:51:59.545Z,58.70
2022-11-06T15:54:39.322Z,58.70
2022-11-06T15:57:24.592Z,58.70
2022-11-06T16:00:07.406Z,58.70
2022-11-06T16:02:48.086Z,58.60
2022-11-06T16:05:17.289Z,58.70
2022-11-06T16:07:46.241Z,58.70
2022-11-06T16:10:18.730Z,58.80
2022-11-06T16:12:53.952Z,59.00
2022-11-06T16:15:45.806Z,59.10
2022-11-06T16:23:13.800Z,59.20
2022-11-06T16:28:20.484Z,59.20
2022-11-06T16:30:49.541Z,59.20
2022-11-06T16:33:21.260Z,59.30
2022-11-06T16:36:05.466Z,59.60
2022-11-06T16:38:41.614Z,59.70
2022-11-06T16:46:08.489Z,59.90
2022-11-06T16:48:45.570Z,59.90
2022-11-06T16:51:36.637Z,59.90
2022-11-06T16:56:34.405Z,60.10
2022-11-06T17:01:36.753Z,60.30
2022-11-06T17:04:04.036Z,60.40
2022-11-06T17:06:34.399Z,60.40
2022-11-06T17:09:23.677Z,60.50
2022-11-06T17:11:54.309Z,60.60
2022-11-06T17:14:22.215Z,60.80
2022-11-06T17:17:00.320Z,60.80
2022-11-06T17:19:28.400Z,60.90
2022-11-06T17:21:55.747Z,61.00
2022-11-06T17:29:35.806Z,61.30
2022-11-06T17:52:00.409Z,61.70
2022-11-06T17:54:32.186Z,61.80
2022-11-06T17:57:02.107Z,61.70
2022-11-06T17:59:29.345Z,61.60
2022-11-06T18:04:26.351Z,62.00
2022-11-06T18:06:54.427Z,62.20
2022-11-06T18:09:22.104Z,62.30
2022-11-06T18:11:50.583Z,62.30
2022-11-06T18:16:45.281Z,62.80
2022-11-06T18:19:15.330Z,62.80
2022-11-06T18:24:09.863Z,62.80
2022-11-06T18:29:05.851Z,62.60
2022-11-06T18:43:56.032Z,62.40
2022-11-06T18:48:55.944Z,62.10
2022-11-06T18:51:35.223Z,62.00
2022-11-06T18:54:06.043Z,62.00
2022-11-06T18:59:03.184Z,61.90
2022-11-06T19:16:19.438Z,61.60
2022-11-06T19:21:29.853Z,61.30
2022-11-06T19:24:05.929Z,61.10
2022-11-06T19:26:35.467Z,61.00
2022-11-06T19:34:00.189Z,60.60
2022-11-06T19:38:57.410Z,60.60
2022-11-06T19:41:25.782Z,60.50
2022-11-06T20:01:25.330Z,60.10
2022-11-06T20:08:48.995Z,60.00
2022-11-06T20:13:45.214Z,60.00
2022-11-06T20:16:20.047Z,59.90
2022-11-06T20:18:52.426Z,59.80
2022-11-06T20:21:21.351Z,59.80
2022-11-06T20:23:49.099Z,59.70
2022-11-06T20:26:26.057Z,59.60
2022-11-06T20:36:27.163Z,59.20
2022-11-06T20:38:56.803Z,59.10
2022-11-06T20:41:28.493Z,59.00
2022-11-06T20:46:24.476Z,58.90
2022-11-06T20:48:51.904Z,58.80
2022-11-06T20:51:22.289Z,58.80
2022-11-06T20:56:20.585Z,58.80
2022-11-06T21:01:20.361Z,58.80
2022-11-06T21:03:49.593Z,58.90
2022-11-06T21:06:18.154Z,58.90
2022-11-06T21:08:45.687Z,58.90
2022-11-06T21:11:20.743Z,58.90
2022-11-06T21:13:49.613Z,58.90
2022-11-06T21:16:23.048Z,59.00
2022-11-06T21:21:21.609Z,60.70
2022-11-06T21:23:49.806Z,59.10
2022-11-06T21:26:26.863Z,59.10
2022-11-06T21:31:25.420Z,59.00
2022-11-06T21:33:53.898Z,59.00
2022-11-06T21:36:29.582Z,59.10
2022-11-06T21:39:03.610Z,59.20
2022-11-06T21:41:34.089Z,59.20
2022-11-06T21:44:02.617Z,59.20
2022-11-06T21:51:27.375Z,59.30
2022-11-06T21:54:18.356Z,59.30
2022-11-06T21:56:48.584Z,59.40
2022-11-06T21:59:17.832Z,59.40
2022-11-06T22:04:13.902Z,59.60
2022-11-06T22:06:42.344Z,59.70
2022-11-06T22:09:10.997Z,59.90
2022-11-06T22:11:40.227Z,60.00
2022-11-06T22:14:11.517Z,60.00
2022-11-06T22:16:41.318Z,60.20
2022-11-06T22:19:09.532Z,61.20
2022-11-06T22:21:38.977Z,60.40
2022-11-06T22:24:07.277Z,60.60
2022-11-06T22:26:35.448Z,60.80
2022-11-06T22:29:06.471Z,60.90
2022-11-06T22:41:24.927Z,61.10
2022-11-06T22:43:52.454Z,61.90
2022-11-06T22:46:23.507Z,62.00
2022-11-06T22:48:51.626Z,62.20
2022-11-06T22:51:24.203Z,62.20
2022-11-06T22:53:52.354Z,62.20
2022-11-06T22:56:20.867Z,62.30
2022-11-06T22:58:48.111Z,62.30
2022-11-06T23:01:14.956Z,62.30
2022-11-06T23:03:41.721Z,62.30
2022-11-06T23:06:09.684Z,62.30
2022-11-06T23:08:40.663Z,62.40
2022-11-06T23:11:12.357Z,62.50
2022-11-06T23:13:40.215Z,62.50
2022-11-06T23:16:13.540Z,62.60
2022-11-06T23:18:41.040Z,62.70
2022-11-06T23:21:17.803Z,62.80
2022-11-06T23:23:45.660Z,62.90
2022-11-06T23:26:17.867Z,63.10
2022-11-06T23:28:45.306Z,63.00
2022-11-06T23:31:13.980Z,63.70
2022-11-06T23:33:41.326Z,63.10
2022-11-06T23:36:11.328Z,63.10
2022-11-06T23:38:38.381Z,63.10
2022-11-06T23:41:32.343Z,63.10
2022-11-06T23:43:59.665Z,63.20
2022-11-06T23:46:28.843Z,63.20
2022-11-06T23:48:56.391Z,63.40
2022-11-06T23:51:24.971Z,63.40
2022-11-06T23:53:52.422Z,63.40
2022-11-06T23:56:19.227Z,63.40
2022-11-06T23:58:46.145Z,65.40
